createdAt,value
2022-10-04T00:04:29.698Z,100.00
2022-10-04T00:10:15.713Z,100.00
2022-10-04T00:15:27.517Z,100.00
2022-10-04T00:20:51.111Z,100.00
2022-10-04T00:25:58.231Z,100.00
2022-10-04T00:31:25.194Z,100.00
2022-10-04T00:36:38.100Z,100.00
2022-10-04T00:41:48.060Z,100.00
2022-10-04T00:46:52.851Z,100.00
2022-10-04T00:52:15.338Z,100.00
2022-10-04T00:57:26.162Z,100.00
2022-10-04T01:02:40.391Z,100.00
2022-10-04T01:07:50.355Z,100.00
2022-10-04T01:13:04.814Z,100.00
2022-10-04T01:18:18.575Z,100.00
2022-10-04T01:23:51.988Z,100.00
2022-10-04T01:29:03.677Z,100.00
2022-10-04T01:34:07.519Z,100.00
2022-10-04T01:39:11.099Z,100.00
2022-10-04T01:44:56.251Z,100.00
2022-10-04T01:50:03.071Z,100.00
2022-10-04T01:55:16.051Z,100.00
2022-10-04T02:00:22.293Z,100.00
2022-10-04T02:05:33.897Z,100.00
2022-10-04T02:10:43.456Z,100.00
2022-10-04T02:15:47.985Z,100.00
2022-10-04T02:20:52.011Z,100.00
2022-10-04T02:25:55.736Z,100.00
2022-10-04T02:31:18.235Z,100.00
2022-10-04T02:36:25.012Z,100.00
2022-10-04T02:41:35.961Z,100.00
2022-10-04T02:46:50.663Z,100.00
2022-10-04T02:52:09.113Z,100.00
2022-10-04T02:57:21.184Z,100.00
2022-10-04T03:02:30.605Z,100.00
2022-10-04T03:07:35.712Z,100.00
2022-10-04T03:12:45.586Z,100.00
2022-10-04T03:17:54.272Z,100.00
2022-10-04T03:22:59.940Z,100.00
2022-10-04T03:28:05.854Z,100.00
2022-10-04T03:33:12.579Z,100.00
2022-10-04T03:38:16.497Z,100.00
2022-10-04T03:43:24.371Z,100.00
2022-10-04T03:48:36.303Z,100.00
2022-10-04T03:53:54.361Z,100.00
2022-10-04T03:59:14.414Z,100.00
2022-10-04T04:04:36.110Z,100.00
2022-10-04T04:09:46.203Z,100.00
2022-10-04T04:14:54.961Z,100.00
2022-10-04T04:20:06.899Z,100.00
2022-10-04T04:25:16.669Z,100.00
2022-10-04T04:30:20.074Z,100.00
2022-10-04T04:35:41.430Z,100.00
2022-10-04T04:40:47.190Z,100.00
2022-10-04T04:46:08.449Z,100.00
2022-10-04T04:51:21.942Z,100.00
2022-10-04T04:56:29.883Z,100.00
2022-10-04T05:01:45.070Z,100.00
2022-10-04T05:06:50.192Z,100.00
2022-10-04T05:11:58.966Z,100.00
2022-10-04T05:17:02.496Z,100.00
2022-10-04T05:22:18.281Z,100.00
2022-10-04T05:27:43.034Z,100.00
2022-10-04T05:32:59.280Z,100.00
2022-10-04T05:39:03.779Z,100.00
2022-10-04T05:44:37.318Z,100.00
2022-10-04T05:49:44.172Z,100.00
2022-10-04T05:54:47.601Z,100.00
2022-10-04T06:00:13.485Z,100.00
2022-10-04T06:05:55.326Z,100.00
2022-10-04T06:11:23.142Z,100.00
2022-10-04T06:16:48.662Z,100.00
2022-10-04T06:22:16.757Z,100.00
2022-10-04T06:27:43.111Z,100.00
2022-10-04T06:33:17.829Z,100.00
2022-10-04T06:38:33.116Z,100.00
2022-10-04T06:43:40.477Z,100.00
2022-10-04T06:48:48.112Z,100.00
2022-10-04T06:53:51.490Z,100.00
2022-10-04T06:59:39.396Z,100.00
2022-10-04T07:05:08.613Z,100.00
2022-10-04T07:10:32.419Z,100.00
2022-10-04T07:15:52.833Z,100.00
2022-10-04T07:21:09.858Z,100.00
2022-10-04T07:26:42.333Z,100.00
2022-10-04T07:31:48.233Z,100.00
2022-10-04T07:36:58.776Z,100.00
2022-10-04T07:42:49.326Z,100.00
2022-10-04T07:48:17.463Z,100.00
2022-10-04T07:53:34.834Z,100.00
2022-10-04T07:59:07.398Z,100.00
2022-10-04T08:04:18.754Z,100.00
2022-10-04T08:09:39.082Z,99.93
2022-10-04T08:15:09.530Z,100.00
2022-10-04T08:20:42.020Z,97.54
2022-10-04T08:25:57.858Z,98.92
2022-10-04T08:31:11.871Z,96.65
2022-10-04T08:36:18.175Z,96.95
2022-10-04T08:41:34.115Z,96.42
2022-10-04T08:46:56.851Z,96.72
2022-10-04T08:52:12.269Z,97.02
2022-10-04T08:57:54.057Z,94.68
2022-10-04T09:03:09.379Z,93.86
2022-10-04T09:08:31.510Z,94.12
2022-10-04T09:13:47.844Z,93.63
2022-10-04T09:18:52.894Z,92.66
2022-10-04T09:24:14.961Z,93.15
2022-10-04T09:29:48.231Z,92.04
2022-10-04T09:35:18.256Z,88.47
2022-10-04T09:41:02.323Z,89.56
2022-10-04T09:46:20.855Z,90.94
2022-10-04T09:51:48.527Z,90.62
2022-10-04T09:57:10.806Z,89.92
2022-10-04T10:02:35.259Z,88.92
2022-10-04T10:08:16.066Z,87.58
2022-10-04T10:13:40.573Z,87.16
2022-10-04T10:18:59.181Z,87.63
2022-10-04T10:24:36.123Z,86.24
2022-10-04T10:29:59.830Z,83.75
2022-10-04T10:35:45.387Z,84.95
2022-10-04T10:41:36.148Z,85.29
2022-10-04T10:46:58.729Z,85.54
2022-10-04T10:52:25.978Z,85.66
2022-10-04T10:58:08.099Z,85.29
2022-10-04T11:03:50.526Z,84.05
2022-10-04T11:09:29.338Z,83.41
2022-10-04T11:14:49.568Z,82.21
2022-10-04T11:20:24.659Z,83.13
2022-10-04T11:26:00.194Z,82.13
2022-10-04T11:31:13.331Z,79.32
2022-10-04T11:36:33.237Z,79.91
2022-10-04T11:41:45.676Z,79.03
2022-10-04T11:47:21.972Z,78.36
2022-10-04T11:52:57.932Z,79.17
2022-10-04T11:58:16.429Z,79.33
2022-10-04T12:03:37.983Z,77.17
2022-10-04T12:09:06.325Z,77.68
2022-10-04T12:14:43.165Z,79.31
2022-10-04T12:19:58.339Z,79.53
2022-10-04T12:25:43.788Z,78.57
2022-10-04T12:31:08.592Z,76.55
2022-10-04T12:36:31.433Z,76.31
2022-10-04T12:41:35.007Z,75.16
2022-10-04T12:46:57.810Z,76.16
2022-10-04T12:52:20.141Z,74.74
2022-10-04T12:57:23.636Z,75.48
2022-10-04T13:02:51.487Z,75.66
2022-10-04T13:08:18.066Z,75.14
2022-10-04T13:13:37.151Z,74.80
2022-10-04T13:19:18.886Z,74.19
2022-10-04T13:25:02.759Z,74.87
2022-10-04T13:30:40.746Z,73.07
2022-10-04T13:35:54.893Z,73.72
2022-10-04T13:41:19.136Z,73.18
2022-10-04T13:46:25.378Z,73.05
2022-10-04T13:51:48.284Z,72.39
2022-10-04T13:57:21.819Z,72.84
2022-10-04T14:02:48.224Z,73.92
2022-10-04T14:08:07.672Z,73.86
2022-10-04T14:13:30.105Z,73.06
2022-10-04T14:19:11.758Z,73.19
2022-10-04T14:24:42.785Z,73.07
2022-10-04T14:30:11.115Z,72.55
2022-10-04T14:35:35.348Z,72.55
2022-10-04T14:41:07.878Z,72.41
2022-10-04T14:46:20.173Z,72.15
2022-10-04T14:52:05.460Z,72.79
2022-10-04T14:57:20.801Z,72.16
2022-10-04T15:02:28.783Z,72.17
2022-10-04T15:07:39.316Z,72.58
2022-10-04T15:13:12.280Z,72.68
2022-10-04T15:18:31.452Z,72.70
2022-10-04T15:23:43.580Z,72.91
2022-10-04T15:28:49.923Z,73.12
2022-10-04T15:34:25.830Z,73.36
2022-10-04T15:39:40.141Z,73.84
2022-10-04T15:45:18.594Z,74.12
2022-10-04T15:50:31.105Z,74.50
2022-10-04T15:55:38.232Z,74.96
2022-10-04T16:01:22.984Z,75.12
2022-10-04T16:06:33.652Z,75.42
2022-10-04T16:12:06.625Z,75.88
2022-10-04T16:17:19.875Z,76.23
2022-10-04T16:22:34.417Z,76.75
2022-10-04T16:27:47.234Z,77.15
2022-10-04T16:34:01.314Z,77.66
2022-10-04T16:40:20.185Z,78.28
2022-10-04T16:46:04.999Z,78.62
2022-10-04T16:51:56.772Z,79.02
2022-10-04T16:57:08.326Z,79.79
2022-10-04T17:02:54.283Z,80.15
2022-10-04T17:08:17.894Z,80.69
2022-10-04T17:13:27.368Z,81.54
2022-10-04T17:18:55.797Z,82.54
2022-10-04T17:24:17.329Z,83.24
2022-10-04T17:29:38.798Z,83.82
2022-10-04T17:34:59.890Z,84.20
2022-10-04T17:40:14.917Z,84.53
2022-10-04T17:45:39.336Z,84.71
2022-10-04T17:51:16.597Z,84.95
2022-10-04T17:56:33.326Z,85.44
2022-10-04T18:01:46.827Z,85.99
2022-10-04T18:07:14.039Z,86.42
2022-10-04T18:12:32.559Z,86.85
2022-10-04T18:17:50.838Z,87.13
2022-10-04T18:22:59.846Z,87.52
2022-10-04T18:28:08.289Z,87.60
2022-10-04T18:33:26.172Z,88.05
2022-10-04T18:38:41.997Z,88.37
2022-10-04T18:44:16.845Z,88.82
2022-10-04T18:49:26.757Z,89.52
2022-10-04T18:54:48.604Z,89.64
2022-10-04T19:00:53.892Z,90.34
2022-10-04T19:06:19.078Z,90.57
2022-10-04T19:11:41.145Z,90.44
2022-10-04T19:17:45.139Z,90.47
2022-10-04T19:23:13.311Z,91.33
2022-10-04T19:28:30.032Z,91.51
2022-10-04T19:34:10.852Z,91.64
2022-10-04T19:39:44.391Z,91.87
2022-10-04T19:45:27.590Z,92.34
2022-10-04T19:50:43.793Z,92.29
2022-10-04T19:56:01.012Z,92.79
2022-10-04T20:01:17.781Z,92.89
2022-10-04T20:06:30.434Z,93.63
2022-10-04T20:11:49.833Z,94.37
2022-10-04T20:17:03.897Z,94.26
2022-10-04T20:22:35.842Z,94.45
2022-10-04T20:27:45.629Z,94.88
2022-10-04T20:32:52.219Z,94.70
2022-10-04T20:38:30.487Z,94.72
2022-10-04T20:43:27.970Z,94.84
2022-10-04T20:48:38.484Z,94.70
2022-10-04T20:53:48.262Z,94.93
2022-10-04T20:58:55.701Z,95.34
2022-10-04T21:04:33.403Z,95.66
2022-10-04T21:09:39.092Z,95.50
2022-10-04T21:15:08.638Z,96.00
2022-10-04T21:20:52.363Z,96.32
2022-10-04T21:26:28.649Z,96.31
2022-10-04T21:31:35.353Z,96.44
2022-10-04T21:36:44.755Z,96.54
2022-10-04T21:41:51.688Z,96.92
2022-10-04T21:46:58.618Z,97.25
2022-10-04T21:52:02.880Z,97.32
2022-10-04T21:57:08.023Z,97.43
2022-10-04T22:02:12.496Z,97.75
2022-10-04T22:07:16.268Z,98.00
2022-10-04T22:12:27.393Z,98.05
2022-10-04T22:17:45.829Z,98.12
2022-10-04T22:22:52.835Z,98.55
2022-10-04T22:27:56.717Z,98.58
2022-10-04T22:33:01.894Z,98.83
2022-10-04T22:38:05.760Z,98.79
2022-10-04T22:43:13.471Z,98.70
2022-10-04T22:48:19.001Z,98.74
2022-10-04T22:53:29.122Z,99.07
2022-10-04T22:58:32.302Z,99.06
2022-10-04T23:03:35.810Z,99.32
2022-10-04T23:08:39.029Z,99.79
2022-10-04T23:13:45.082Z,100.00
2022-10-04T23:19:01.900Z,99.99
2022-10-04T23:24:21.234Z,100.00
2022-10-04T23:29:28.382Z,100.00
2022-10-04T23:34:36.914Z,100.00
2022-10-04T23:39:40.650Z,100.00
2022-10-04T23:44:44.062Z,100.00
2022-10-04T23:49:49.865Z,100.00
2022-10-04T23:54:54.675Z,100.00
